createdAt,value
2022-11-15T00:07:14.929Z,-2.50
2022-11-15T00:17:25.386Z,-2.47
2022-11-15T00:27:29.785Z,-2.43
2022-11-15T00:37:32.929Z,-2.41
2022-11-15T00:47:37.667Z,-2.38
2022-11-15T00:57:40.887Z,-2.35
2022-11-15T01:07:45.646Z,-2.34
2022-11-15T01:17:48.605Z,-2.32
2022-11-15T01:27:53.149Z,-2.32
2022-11-15T01:37:56.228Z,-2.32
2022-11-15T01:48:02.379Z,-2.32
2022-11-15T01:58:07.266Z,-2.33
2022-11-15T02:08:21.330Z,-2.33
2022-11-15T02:18:29.857Z,-2.40
2022-11-15T02:28:57.774Z,-2.43
2022-11-15T02:39:09.978Z,-2.44
2022-11-15T02:49:15.431Z,-2.45
2022-11-15T02:59:50.934Z,-2.46
2022-11-15T03:10:03.531Z,-2.45
2022-11-15T03:20:11.835Z,-2.47
2022-11-15T03:30:16.133Z,-2.45
2022-11-15T03:40:25.825Z,-2.43
2022-11-15T03:50:29.935Z,-2.41
2022-11-15T04:00:34.400Z,-2.40
2022-11-15T04:10:37.849Z,-2.38
2022-11-15T04:21:00.768Z,-2.36
2022-11-15T04:31:03.353Z,-2.34
2022-11-15T04:41:26.756Z,-2.33
2022-11-15T04:51:48.496Z,-2.31
2022-11-15T05:01:53.010Z,-2.35
2022-11-15T05:11:56.593Z,-2.37
2022-11-15T05:22:01.039Z,-2.40
2022-11-15T05:32:07.050Z,-2.44
2022-11-15T05:42:13.255Z,-2.41
2022-11-15T05:52:21.546Z,-2.37
2022-11-15T06:02:26.162Z,-2.33
2022-11-15T06:12:29.201Z,-2.29
2022-11-15T06:22:33.750Z,-2.25
2022-11-15T06:32:36.759Z,-2.22
2022-11-15T06:42:41.373Z,-2.18
2022-11-15T06:52:44.497Z,-2.13
2022-11-15T07:02:49.149Z,-2.07
2022-11-15T07:12:52.096Z,-2.00
2022-11-15T07:23:03.724Z,-1.93
2022-11-15T07:33:06.968Z,-1.85
2022-11-15T07:43:11.387Z,-1.76
2022-11-15T07:53:14.393Z,-1.69
2022-11-15T08:03:18.938Z,-1.61
2022-11-15T08:13:22.633Z,-1.55
2022-11-15T08:23:27.022Z,-1.48
2022-11-15T08:33:30.685Z,-1.42
2022-11-15T08:43:35.572Z,-1.37
2022-11-15T08:53:41.511Z,-1.32
2022-11-15T09:03:45.761Z,-1.30
2022-11-15T09:13:50.827Z,-1.26
2022-11-15T09:23:56.962Z,-1.23
2022-11-15T09:33:59.828Z,-1.20
2022-11-15T09:44:25.518Z,-1.16
2022-11-15T10:05:00.438Z,-1.15
2022-11-15T10:15:16.667Z,-1.12
2022-11-15T10:25:31.281Z,-1.09
2022-11-15T10:35:39.676Z,-1.09
2022-11-15T10:45:45.005Z,-1.07
2022-11-15T10:55:57.377Z,-1.05
2022-11-15T11:06:17.636Z,-1.05
2022-11-15T11:16:40.632Z,-1.04
2022-11-15T11:26:57.114Z,-1.03
2022-11-15T11:37:12.839Z,-1.02
2022-11-15T11:47:26.005Z,-1.03
2022-11-15T11:57:38.456Z,-1.05
2022-11-15T12:07:50.055Z,-1.05
2022-11-15T12:17:57.376Z,-1.07
2022-11-15T12:28:08.920Z,-1.06
2022-11-15T12:38:13.796Z,-1.05
2022-11-15T12:49:01.634Z,-1.05
2022-11-15T12:59:11.802Z,-1.04
2022-11-15T13:09:51.780Z,-1.04
2022-11-15T13:20:01.550Z,-1.04
2022-11-15T13:30:20.758Z,-1.04
2022-11-15T13:40:31.713Z,-1.05
2022-11-15T13:50:53.777Z,-1.07
2022-11-15T14:01:08.219Z,-1.07
2022-11-15T14:11:19.095Z,-1.07
2022-11-15T14:21:23.743Z,-1.08
2022-11-15T14:31:29.821Z,-1.09
2022-11-15T14:52:32.540Z,-1.12
2022-11-15T15:02:39.464Z,-1.16
2022-11-15T15:12:46.286Z,-1.21
2022-11-15T15:22:52.933Z,-1.25
2022-11-15T15:33:05.111Z,-1.31
2022-11-15T15:43:13.955Z,-1.37
2022-11-15T15:53:19.112Z,-1.40
2022-11-15T16:03:42.842Z,-1.48
2022-11-15T16:13:50.422Z,-1.51
2022-11-15T16:24:06.161Z,-1.58
2022-11-15T16:46:03.569Z,-1.63
2022-11-15T16:56:28.712Z,-1.69
2022-11-15T17:07:34.582Z,-1.77
2022-11-15T17:17:50.429Z,-1.81
2022-11-15T17:49:13.128Z,-1.91
2022-11-15T17:59:26.761Z,-1.92
2022-11-15T18:09:36.218Z,-1.95
2022-11-15T18:19:52.210Z,-1.96
2022-11-15T18:29:58.565Z,-1.97
2022-11-15T18:40:04.314Z,-2.01
2022-11-15T18:50:12.600Z,-2.06
2022-11-15T19:00:27.080Z,-2.06
2022-11-15T19:10:39.056Z,-2.06
2022-11-15T19:20:55.476Z,-2.07
2022-11-15T19:31:10.562Z,-2.08
2022-11-15T19:41:17.849Z,-2.10
2022-11-15T19:51:35.280Z,-2.11
2022-11-15T20:01:39.720Z,-2.13
2022-11-15T20:11:45.264Z,-2.15
2022-11-15T20:21:48.397Z,-2.13
2022-11-15T20:31:53.295Z,-2.17
2022-11-15T20:41:56.390Z,-2.16
2022-11-15T20:52:01.170Z,-2.17
2022-11-15T21:02:04.589Z,-2.16
2022-11-15T21:12:15.128Z,-2.16
2022-11-15T21:22:18.447Z,-2.15
2022-11-15T21:32:23.055Z,-2.14
2022-11-15T21:42:36.214Z,-2.15
2022-11-15T21:52:41.888Z,-2.14
2022-11-15T22:02:47.842Z,-2.13
2022-11-15T22:12:52.687Z,-2.13
2022-11-15T22:22:55.799Z,-2.16
2022-11-15T22:33:01.416Z,-2.16
2022-11-15T22:43:06.817Z,-2.16
2022-11-15T22:53:14.323Z,-2.16
2022-11-15T23:03:18.009Z,-2.16
2022-11-15T23:13:28.762Z,-2.18
2022-11-15T23:23:32.710Z,-2.20
2022-11-15T23:33:56.098Z,-2.23
2022-11-15T23:43:59.116Z,-2.27
2022-11-15T23:54:03.840Z,-2.27
